This is the latest recevied weather packets stored in our database for station/object K1KOF. If no packets are shown the sender has not sent any weather packets the latest 10 day(s).
| Time | Temp. | Humidity | Pressure | Rain* | Wind** | Luminosity | Snow |
|---|---|---|---|---|---|---|---|
| 1777669470 | 20° C | 62% | 1022.8 hPa | 0 mm | - | 206 W/m² | - |
| 1777669166 | 20° C | 61% | 1022.8 hPa | 0 mm | - | 187 W/m² | - |
| 1777668863 | 20° C | 61% | 1022.8 hPa | 0 mm | - | 303 W/m² | - |
| 1777668561 | 20° C | 62% | 1022.9 hPa | 0 mm | - | 417 W/m² | - |
| 1777668256 | 19.44° C | 62% | 1022.8 hPa | 0 mm | - | 366 W/m² | - |
| 1777667953 | 18.89° C | 63% | 1022.7 hPa | 0 mm | - | 300 W/m² | - |
| 1777667650 | 18.89° C | 63% | 1022.7 hPa | 0 mm | - | 378 W/m² | - |
| 1777667348 | 18.89° C | 66% | 1022.8 hPa | 0 mm | - | 190 W/m² | - |
| 1777667044 | 18.89° C | 66% | 1023.1 hPa | 0 mm | - | 242 W/m² | - |
| 1777666741 | 18.89° C | 65% | 1023.3 hPa | 0 mm | - | 294 W/m² | - |
| 1777666438 | 18.89° C | 65% | 1022.9 hPa | 0 mm | - | 292 W/m² | - |
| 1777666134 | 19.44° C | 64% | 1023.2 hPa | 0 mm | - | 287 W/m² | - |
| 1777665831 | 19.44° C | 63% | 1023.5 hPa | 0 mm | - | 395 W/m² | - |
| 1777665529 | 19.44° C | 64% | 1023.3 hPa | 0 mm | - | 454 W/m² | - |
| 1777665225 | 19.44° C | 64% | 1023.3 hPa | 0 mm | - | 664 W/m² | - |
| 1777664921 | 18.89° C | 66% | 1023.4 hPa | 0 mm | - | 361 W/m² | - |
| 1777664617 | 19.44° C | 64% | 1023.4 hPa | 0 mm | - | 324 W/m² | - |
| 1777664314 | 19.44° C | 64% | 1023.9 hPa | 0 mm | - | 596 W/m² | - |
| 1777664012 | 18.89° C | 64% | 1023.6 hPa | 0 mm | - | 554 W/m² | - |
| 1777663710 | 20° C | 61% | 1023.8 hPa | 0 mm | - | 502 W/m² | - |
| 1777663407 | 19.44° C | 62% | 1023.7 hPa | 0 mm | - | 593 W/m² | - |
| 1777663103 | 20° C | 62% | 1023.7 hPa | 0 mm | - | 366 W/m² | - |
| 1777662801 | 18.89° C | 63% | 1024 hPa | 0 mm | - | 306 W/m² | - |
| 1777662497 | 18.33° C | 62% | 1023.9 hPa | 0 mm | - | 411 W/m² | - |
| 1777662193 | 18.89° C | 62% | 1024 hPa | 0 mm | - | 350 W/m² | - |
* Rain latest hour (hover to see other rain measurements)
** Current wind speed in m/s (hover to see current wind gust speed)